sensor_id;sensor_type;location;lat;lon;timestamp;temperature;humidity
22035;DHT22;11181;51.002;4.356;2024-03-02T00:00:39;8.40;99.90
22035;DHT22;11181;51.002;4.356;2024-03-02T00:03:07;8.30;99.90
22035;DHT22;11181;51.002;4.356;2024-03-02T00:05:35;8.30;99.90
22035;DHT22;11181;51.002;4.356;2024-03-02T00:08:05;8.20;99.90
22035;DHT22;11181;51.002;4.356;2024-03-02T00:10:37;8.00;99.90
22035;DHT22;11181;51.002;4.356;2024-03-02T00:13:06;7.90;99.90
22035;DHT22;11181;51.002;4.356;2024-03-02T00:15:46;7.80;99.90
22035;DHT22;11181;51.002;4.356;2024-03-02T00:18:16;7.70;99.90
22035;DHT22;11181;51.002;4.356;2024-03-02T00:20:45;7.80;99.90
22035;DHT22;11181;51.002;4.356;2024-03-02T00:23:15;7.90;99.90
22035;DHT22;11181;51.002;4.356;2024-03-02T00:25:44;7.90;99.90
22035;DHT22;11181;51.002;4.356;2024-03-02T00:28:17;8.00;99.90
22035;DHT22;11181;51.002;4.356;2024-03-02T00:30:55;7.90;99.90
22035;DHT22;11181;51.002;4.356;2024-03-02T00:33:26;8.00;99.90
22035;DHT22;11181;51.002;4.356;2024-03-02T00:35:54;7.90;99.90
22035;DHT22;11181;51.002;4.356;2024-03-02T00:38:22;7.90;99.90
22035;DHT22;11181;51.002;4.356;2024-03-02T00:40:50;7.80;99.90
22035;DHT22;11181;51.002;4.356;2024-03-02T00:43:43;7.80;99.90
22035;DHT22;11181;51.002;4.356;2024-03-02T00:46:11;7.80;99.90
22035;DHT22;11181;51.002;4.356;2024-03-02T00:48:39;7.70;99.90
22035;DHT22;11181;51.002;4.356;2024-03-02T00:51:10;7.70;99.90
22035;DHT22;11181;51.002;4.356;2024-03-02T00:53:37;7.70;99.90
22035;DHT22;11181;51.002;4.356;2024-03-02T00:56:09;7.80;99.90
22035;DHT22;11181;51.002;4.356;2024-03-02T00:58:37;7.90;99.90
22035;DHT22;11181;51.002;4.356;2024-03-02T01:01:04;7.90;99.90
22035;DHT22;11181;51.002;4.356;2024-03-02T01:03:31;7.90;99.90
22035;DHT22;11181;51.002;4.356;2024-03-02T01:05:58;7.80;99.90
22035;DHT22;11181;51.002;4.356;2024-03-02T01:08:25;7.90;99.90
22035;DHT22;11181;51.002;4.356;2024-03-02T01:10:52;7.90;99.90
22035;DHT22;11181;51.002;4.356;2024-03-02T01:13:21;7.90;99.90
22035;DHT22;11181;51.002;4.356;2024-03-02T01:15:48;7.90;99.90
22035;DHT22;11181;51.002;4.356;2024-03-02T01:18:15;7.90;99.90
22035;DHT22;11181;51.002;4.356;2024-03-02T01:20:42;8.00;99.90
22035;DHT22;11181;51.002;4.356;2024-03-02T01:23:09;8.00;99.90
22035;DHT22;11181;51.002;4.356;2024-03-02T01:25:36;8.10;99.90
22035;DHT22;11181;51.002;4.356;2024-03-02T01:28:03;8.10;99.90
22035;DHT22;11181;51.002;4.356;2024-03-02T01:30:32;8.10;99.90
22035;DHT22;11181;51.002;4.356;2024-03-02T01:32:59;8.10;99.90
22035;DHT22;11181;51.002;4.356;2024-03-02T01:35:26;8.10;99.90
22035;DHT22;11181;51.002;4.356;2024-03-02T01:37:53;8.00;99.90
22035;DHT22;11181;51.002;4.356;2024-03-02T01:40:20;8.00;99.90
22035;DHT22;11181;51.002;4.356;2024-03-02T01:42:47;8.00;99.90
22035;DHT22;11181;51.002;4.356;2024-03-02T01:45:14;8.00;99.90
22035;DHT22;11181;51.002;4.356;2024-03-02T01:47:42;8.00;99.90
22035;DHT22;11181;51.002;4.356;2024-03-02T01:50:11;8.00;99.90
22035;DHT22;11181;51.002;4.356;2024-03-02T01:52:39;7.90;99.90
22035;DHT22;11181;51.002;4.356;2024-03-02T01:55:06;8.00;99.90
22035;DHT22;11181;51.002;4.356;2024-03-02T01:57:34;8.10;99.90
22035;DHT22;11181;51.002;4.356;2024-03-02T02:00:01;8.20;99.90
22035;DHT22;11181;51.002;4.356;2024-03-02T02:02:29;8.20;99.90
22035;DHT22;11181;51.002;4.356;2024-03-02T02:04:57;8.10;99.90
22035;DHT22;11181;51.002;4.356;2024-03-02T02:07:24;8.10;99.90
22035;DHT22;11181;51.002;4.356;2024-03-02T02:09:50;8.10;99.90
22035;DHT22;11181;51.002;4.356;2024-03-02T02:12:17;8.10;99.90
22035;DHT22;11181;51.002;4.356;2024-03-02T02:14:47;8.10;99.90
22035;DHT22;11181;51.002;4.356;2024-03-02T02:17:15;8.00;99.90
22035;DHT22;11181;51.002;4.356;2024-03-02T02:19:42;8.00;99.90
22035;DHT22;11181;51.002;4.356;2024-03-02T02:22:10;8.10;99.90
22035;DHT22;11181;51.002;4.356;2024-03-02T02:24:40;8.10;99.90
22035;DHT22;11181;51.002;4.356;2024-03-02T02:27:07;8.10;99.90
22035;DHT22;11181;51.002;4.356;2024-03-02T02:29:34;8.20;99.90
22035;DHT22;11181;51.002;4.356;2024-03-02T02:32:01;8.10;99.90
22035;DHT22;11181;51.002;4.356;2024-03-02T02:34:28;8.10;99.90
22035;DHT22;11181;51.002;4.356;2024-03-02T02:36:55;8.00;99.90
22035;DHT22;11181;51.002;4.356;2024-03-02T02:39:23;8.10;99.90
22035;DHT22;11181;51.002;4.356;2024-03-02T02:41:50;8.10;99.90
22035;DHT22;11181;51.002;4.356;2024-03-02T02:44:17;8.20;99.90
22035;DHT22;11181;51.002;4.356;2024-03-02T02:46:44;8.20;99.90
22035;DHT22;11181;51.002;4.356;2024-03-02T02:49:11;8.10;99.90
22035;DHT22;11181;51.002;4.356;2024-03-02T02:51:37;8.10;99.90
22035;DHT22;11181;51.002;4.356;2024-03-02T02:54:04;8.10;99.90
22035;DHT22;11181;51.002;4.356;2024-03-02T02:56:32;8.10;99.90
22035;DHT22;11181;51.002;4.356;2024-03-02T02:58:59;8.10;99.90
22035;DHT22;11181;51.002;4.356;2024-03-02T03:01:26;8.10;99.90
22035;DHT22;11181;51.002;4.356;2024-03-02T03:03:53;8.10;99.90
22035;DHT22;11181;51.002;4.356;2024-03-02T03:06:20;8.00;99.90
22035;DHT22;11181;51.002;4.356;2024-03-02T03:08:47;8.10;99.90
22035;DHT22;11181;51.002;4.356;2024-03-02T03:11:13;8.00;99.90
22035;DHT22;11181;51.002;4.356;2024-03-02T03:13:42;8.10;99.90
22035;DHT22;11181;51.002;4.356;2024-03-02T03:16:08;8.10;99.90
22035;DHT22;11181;51.002;4.356;2024-03-02T03:18:35;8.10;99.90
22035;DHT22;11181;51.002;4.356;2024-03-02T03:21:04;8.10;99.90
22035;DHT22;11181;51.002;4.356;2024-03-02T03:23:30;8.10;99.90
22035;DHT22;11181;51.002;4.356;2024-03-02T03:25:57;8.00;99.90
22035;DHT22;11181;51.002;4.356;2024-03-02T03:28:24;8.00;99.90
22035;DHT22;11181;51.002;4.356;2024-03-02T03:30:52;7.90;99.90
22035;DHT22;11181;51.002;4.356;2024-03-02T03:33:19;7.80;99.90
22035;DHT22;11181;51.002;4.356;2024-03-02T03:35:46;7.90;99.90
22035;DHT22;11181;51.002;4.356;2024-03-02T03:38:13;7.80;99.90
22035;DHT22;11181;51.002;4.356;2024-03-02T03:40:40;7.90;99.90
22035;DHT22;11181;51.002;4.356;2024-03-02T03:43:07;7.80;99.90
22035;DHT22;11181;51.002;4.356;2024-03-02T03:45:34;7.80;99.90
22035;DHT22;11181;51.002;4.356;2024-03-02T03:48:03;7.80;99.90
22035;DHT22;11181;51.002;4.356;2024-03-02T03:50:32;7.80;99.90
22035;DHT22;11181;51.002;4.356;2024-03-02T03:52:59;7.70;99.90
22035;DHT22;11181;51.002;4.356;2024-03-02T03:55:26;7.70;99.90
22035;DHT22;11181;51.002;4.356;2024-03-02T03:57:53;7.70;99.90
22035;DHT22;11181;51.002;4.356;2024-03-02T04:00:20;7.70;99.90
22035;DHT22;11181;51.002;4.356;2024-03-02T04:02:47;7.80;99.90
22035;DHT22;11181;51.002;4.356;2024-03-02T04:05:15;7.90;99.90
22035;DHT22;11181;51.002;4.356;2024-03-02T04:07:42;7.90;99.90
22035;DHT22;11181;51.002;4.356;2024-03-02T04:10:10;8.00;99.90
22035;DHT22;11181;51.002;4.356;2024-03-02T04:12:37;8.00;99.90
22035;DHT22;11181;51.002;4.356;2024-03-02T04:15:05;8.10;99.90
22035;DHT22;11181;51.002;4.356;2024-03-02T04:17:33;8.10;99.90
22035;DHT22;11181;51.002;4.356;2024-03-02T04:20:01;8.10;99.90
22035;DHT22;11181;51.002;4.356;2024-03-02T04:22:33;8.20;99.90
22035;DHT22;11181;51.002;4.356;2024-03-02T04:25:01;8.20;99.90
22035;DHT22;11181;51.002;4.356;2024-03-02T04:27:30;8.20;99.90
22035;DHT22;11181;51.002;4.356;2024-03-02T04:29:57;8.10;99.90
22035;DHT22;11181;51.002;4.356;2024-03-02T04:32:25;8.00;99.90
22035;DHT22;11181;51.002;4.356;2024-03-02T04:34:52;8.00;99.90
22035;DHT22;11181;51.002;4.356;2024-03-02T04:37:19;8.00;99.90
22035;DHT22;11181;51.002;4.356;2024-03-02T04:39:47;8.10;99.90
22035;DHT22;11181;51.002;4.356;2024-03-02T04:42:14;8.00;99.90
22035;DHT22;11181;51.002;4.356;2024-03-02T04:44:41;8.00;99.90
22035;DHT22;11181;51.002;4.356;2024-03-02T04:47:07;8.10;99.90
22035;DHT22;11181;51.002;4.356;2024-03-02T04:49:34;8.20;99.90
22035;DHT22;11181;51.002;4.356;2024-03-02T04:52:01;8.20;99.90
22035;DHT22;11181;51.002;4.356;2024-03-02T04:54:28;8.10;99.90
22035;DHT22;11181;51.002;4.356;2024-03-02T04:56:57;8.10;99.90
22035;DHT22;11181;51.002;4.356;2024-03-02T04:59:24;8.10;99.90
22035;DHT22;11181;51.002;4.356;2024-03-02T05:01:50;8.10;99.90
22035;DHT22;11181;51.002;4.356;2024-03-02T05:04:17;8.10;99.90
22035;DHT22;11181;51.002;4.356;2024-03-02T05:06:44;8.00;99.90
22035;DHT22;11181;51.002;4.356;2024-03-02T05:09:19;8.10;99.90
22035;DHT22;11181;51.002;4.356;2024-03-02T05:11:46;8.10;99.90
22035;DHT22;11181;51.002;4.356;2024-03-02T05:14:26;8.00;99.90
22035;DHT22;11181;51.002;4.356;2024-03-02T05:16:53;8.00;99.90
22035;DHT22;11181;51.002;4.356;2024-03-02T05:19:19;8.00;99.90
22035;DHT22;11181;51.002;4.356;2024-03-02T05:21:46;8.00;99.90
22035;DHT22;11181;51.002;4.356;2024-03-02T05:24:14;8.00;99.90
22035;DHT22;11181;51.002;4.356;2024-03-02T05:26:41;7.90;99.90
22035;DHT22;11181;51.002;4.356;2024-03-02T05:29:08;8.00;99.90
22035;DHT22;11181;51.002;4.356;2024-03-02T05:31:36;8.00;99.90
22035;DHT22;11181;51.002;4.356;2024-03-02T05:34:03;8.10;99.90
22035;DHT22;11181;51.002;4.356;2024-03-02T05:36:31;8.20;99.90
22035;DHT22;11181;51.002;4.356;2024-03-02T05:38:58;8.10;99.90
22035;DHT22;11181;51.002;4.356;2024-03-02T05:41:25;8.00;99.90
22035;DHT22;11181;51.002;4.356;2024-03-02T05:43:52;8.10;99.90
22035;DHT22;11181;51.002;4.356;2024-03-02T05:46:19;7.90;99.90
22035;DHT22;11181;51.002;4.356;2024-03-02T05:48:47;7.80;99.90
22035;DHT22;11181;51.002;4.356;2024-03-02T05:51:14;7.70;99.90
22035;DHT22;11181;51.002;4.356;2024-03-02T05:53:41;7.60;99.90
22035;DHT22;11181;51.002;4.356;2024-03-02T05:56:08;7.60;99.90
22035;DHT22;11181;51.002;4.356;2024-03-02T05:58:35;7.50;99.90
22035;DHT22;11181;51.002;4.356;2024-03-02T06:01:15;7.50;99.90
22035;DHT22;11181;51.002;4.356;2024-03-02T06:03:43;7.60;99.90
22035;DHT22;11181;51.002;4.356;2024-03-02T06:06:11;7.60;99.90
22035;DHT22;11181;51.002;4.356;2024-03-02T06:08:38;7.50;99.90
22035;DHT22;11181;51.002;4.356;2024-03-02T06:11:05;7.50;99.90
22035;DHT22;11181;51.002;4.356;2024-03-02T06:13:32;7.50;99.90
22035;DHT22;11181;51.002;4.356;2024-03-02T06:15:59;7.50;99.90
22035;DHT22;11181;51.002;4.356;2024-03-02T06:18:25;7.50;99.90
22035;DHT22;11181;51.002;4.356;2024-03-02T06:20:53;7.60;99.90
22035;DHT22;11181;51.002;4.356;2024-03-02T06:23:21;7.60;99.90
22035;DHT22;11181;51.002;4.356;2024-03-02T06:25:48;7.60;99.90
22035;DHT22;11181;51.002;4.356;2024-03-02T06:28:15;7.70;99.90
22035;DHT22;11181;51.002;4.356;2024-03-02T06:30:42;7.60;99.90
22035;DHT22;11181;51.002;4.356;2024-03-02T06:33:09;7.50;99.90
22035;DHT22;11181;51.002;4.356;2024-03-02T06:35:35;7.50;99.90
22035;DHT22;11181;51.002;4.356;2024-03-02T06:38:03;7.70;99.90
22035;DHT22;11181;51.002;4.356;2024-03-02T06:40:31;7.80;99.90
22035;DHT22;11181;51.002;4.356;2024-03-02T06:42:59;8.00;99.90
22035;DHT22;11181;51.002;4.356;2024-03-02T06:45:26;8.00;99.90
22035;DHT22;11181;51.002;4.356;2024-03-02T06:47:53;8.00;99.90
22035;DHT22;11181;51.002;4.356;2024-03-02T06:50:20;8.10;99.90
22035;DHT22;11181;51.002;4.356;2024-03-02T06:52:47;8.20;99.90
22035;DHT22;11181;51.002;4.356;2024-03-02T06:55:14;8.20;99.90
22035;DHT22;11181;51.002;4.356;2024-03-02T06:57:42;8.20;99.90
22035;DHT22;11181;51.002;4.356;2024-03-02T07:00:10;8.30;99.90
22035;DHT22;11181;51.002;4.356;2024-03-02T07:02:37;8.30;99.90
22035;DHT22;11181;51.002;4.356;2024-03-02T07:05:06;8.40;99.90
22035;DHT22;11181;51.002;4.356;2024-03-02T07:07:34;8.50;99.90
22035;DHT22;11181;51.002;4.356;2024-03-02T07:10:02;8.60;99.90
22035;DHT22;11181;51.002;4.356;2024-03-02T07:12:29;8.60;99.90
22035;DHT22;11181;51.002;4.356;2024-03-02T07:14:58;8.50;99.90
22035;DHT22;11181;51.002;4.356;2024-03-02T07:17:42;8.30;99.90
22035;DHT22;11181;51.002;4.356;2024-03-02T07:20:09;8.20;99.90
22035;DHT22;11181;51.002;4.356;2024-03-02T07:22:37;8.50;99.90
22035;DHT22;11181;51.002;4.356;2024-03-02T07:25:06;8.70;99.90
22035;DHT22;11181;51.002;4.356;2024-03-02T07:27:33;8.90;99.90
22035;DHT22;11181;51.002;4.356;2024-03-02T07:30:02;9.10;99.90
22035;DHT22;11181;51.002;4.356;2024-03-02T07:32:29;9.30;99.90
22035;DHT22;11181;51.002;4.356;2024-03-02T07:34:55;9.50;99.90
22035;DHT22;11181;51.002;4.356;2024-03-02T07:37:22;9.60;99.90
22035;DHT22;11181;51.002;4.356;2024-03-02T07:39:49;9.50;99.90
22035;DHT22;11181;51.002;4.356;2024-03-02T07:42:17;9.50;99.90
22035;DHT22;11181;51.002;4.356;2024-03-02T07:44:44;9.50;99.90
22035;DHT22;11181;51.002;4.356;2024-03-02T07:47:12;9.50;99.90
22035;DHT22;11181;51.002;4.356;2024-03-02T07:49:40;9.70;99.90
22035;DHT22;11181;51.002;4.356;2024-03-02T07:52:07;9.80;99.90
22035;DHT22;11181;51.002;4.356;2024-03-02T07:54:34;9.80;99.90
22035;DHT22;11181;51.002;4.356;2024-03-02T07:57:00;10.00;99.90
22035;DHT22;11181;51.002;4.356;2024-03-02T07:59:28;10.00;99.90
22035;DHT22;11181;51.002;4.356;2024-03-02T08:01:54;10.10;99.90
22035;DHT22;11181;51.002;4.356;2024-03-02T08:04:23;10.10;99.90
22035;DHT22;11181;51.002;4.356;2024-03-02T08:06:50;10.10;99.90
22035;DHT22;11181;51.002;4.356;2024-03-02T08:09:17;10.10;99.90
22035;DHT22;11181;51.002;4.356;2024-03-02T08:11:44;10.20;99.90
22035;DHT22;11181;51.002;4.356;2024-03-02T08:14:11;10.30;99.90
22035;DHT22;11181;51.002;4.356;2024-03-02T08:16:38;10.30;99.90
22035;DHT22;11181;51.002;4.356;2024-03-02T08:19:05;10.30;99.90
22035;DHT22;11181;51.002;4.356;2024-03-02T08:21:33;10.30;99.90
22035;DHT22;11181;51.002;4.356;2024-03-02T08:24:02;10.40;99.90
22035;DHT22;11181;51.002;4.356;2024-03-02T08:26:29;10.40;99.90
22035;DHT22;11181;51.002;4.356;2024-03-02T08:28:57;10.50;99.90
22035;DHT22;11181;51.002;4.356;2024-03-02T08:31:24;10.70;99.90
22035;DHT22;11181;51.002;4.356;2024-03-02T08:33:51;10.80;99.90
22035;DHT22;11181;51.002;4.356;2024-03-02T08:36:18;10.90;99.90
22035;DHT22;11181;51.002;4.356;2024-03-02T08:38:46;11.00;99.90
22035;DHT22;11181;51.002;4.356;2024-03-02T08:41:14;10.90;99.90
22035;DHT22;11181;51.002;4.356;2024-03-02T08:43:42;10.90;99.90
22035;DHT22;11181;51.002;4.356;2024-03-02T08:46:10;11.00;99.90
22035;DHT22;11181;51.002;4.356;2024-03-02T08:48:39;11.10;99.90
22035;DHT22;11181;51.002;4.356;2024-03-02T08:51:06;11.10;99.90
22035;DHT22;11181;51.002;4.356;2024-03-02T08:53:35;11.40;99.90
22035;DHT22;11181;51.002;4.356;2024-03-02T08:56:05;11.60;99.90
22035;DHT22;11181;51.002;4.356;2024-03-02T08:58:32;11.80;99.90
22035;DHT22;11181;51.002;4.356;2024-03-02T09:00:59;11.80;99.90
22035;DHT22;11181;51.002;4.356;2024-03-02T09:03:26;11.70;99.90
22035;DHT22;11181;51.002;4.356;2024-03-02T09:05:53;11.70;99.90
22035;DHT22;11181;51.002;4.356;2024-03-02T09:08:20;11.80;99.90
22035;DHT22;11181;51.002;4.356;2024-03-02T09:10:47;12.00;99.90
22035;DHT22;11181;51.002;4.356;2024-03-02T09:13:15;12.10;99.90
22035;DHT22;11181;51.002;4.356;2024-03-02T09:15:42;12.10;99.90
22035;DHT22;11181;51.002;4.356;2024-03-02T09:18:10;12.30;99.90
22035;DHT22;11181;51.002;4.356;2024-03-02T09:20:37;12.50;99.90
22035;DHT22;11181;51.002;4.356;2024-03-02T09:23:04;12.60;99.90
22035;DHT22;11181;51.002;4.356;2024-03-02T09:25:31;12.50;99.90
22035;DHT22;11181;51.002;4.356;2024-03-02T09:27:57;12.70;99.90
22035;DHT22;11181;51.002;4.356;2024-03-02T09:30:26;12.80;99.90
22035;DHT22;11181;51.002;4.356;2024-03-02T09:32:53;12.70;99.90
22035;DHT22;11181;51.002;4.356;2024-03-02T09:35:20;12.60;99.90
22035;DHT22;11181;51.002;4.356;2024-03-02T09:37:46;12.60;99.90
22035;DHT22;11181;51.002;4.356;2024-03-02T09:40:13;12.50;99.90
22035;DHT22;11181;51.002;4.356;2024-03-02T09:42:42;12.40;99.90
22035;DHT22;11181;51.002;4.356;2024-03-02T09:45:09;12.70;99.90
22035;DHT22;11181;51.002;4.356;2024-03-02T09:47:38;12.80;99.90
22035;DHT22;11181;51.002;4.356;2024-03-02T09:50:06;12.70;99.90
22035;DHT22;11181;51.002;4.356;2024-03-02T09:52:33;12.70;99.90
22035;DHT22;11181;51.002;4.356;2024-03-02T09:55:01;12.70;99.90
22035;DHT22;11181;51.002;4.356;2024-03-02T09:57:28;12.50;99.90
22035;DHT22;11181;51.002;4.356;2024-03-02T09:59:55;12.20;99.90
22035;DHT22;11181;51.002;4.356;2024-03-02T10:02:22;11.90;99.90
22035;DHT22;11181;51.002;4.356;2024-03-02T10:04:50;12.10;99.90
22035;DHT22;11181;51.002;4.356;2024-03-02T10:07:18;12.20;99.90
22035;DHT22;11181;51.002;4.356;2024-03-02T10:09:47;12.20;99.90
22035;DHT22;11181;51.002;4.356;2024-03-02T10:12:15;12.40;99.90
22035;DHT22;11181;51.002;4.356;2024-03-02T10:14:43;12.60;99.90
22035;DHT22;11181;51.002;4.356;2024-03-02T10:17:11;12.60;99.90
22035;DHT22;11181;51.002;4.356;2024-03-02T10:19:39;12.70;99.90
22035;DHT22;11181;51.002;4.356;2024-03-02T10:22:08;13.00;99.90
22035;DHT22;11181;51.002;4.356;2024-03-02T10:24:36;13.10;99.90
22035;DHT22;11181;51.002;4.356;2024-03-02T10:27:10;13.20;99.90
22035;DHT22;11181;51.002;4.356;2024-03-02T10:29:38;13.30;99.90
22035;DHT22;11181;51.002;4.356;2024-03-02T10:32:08;13.40;99.90
22035;DHT22;11181;51.002;4.356;2024-03-02T10:34:37;13.50;99.90
22035;DHT22;11181;51.002;4.356;2024-03-02T10:37:07;13.60;99.90
22035;DHT22;11181;51.002;4.356;2024-03-02T10:39:34;13.40;99.90
22035;DHT22;11181;51.002;4.356;2024-03-02T10:42:02;13.20;99.90
22035;DHT22;11181;51.002;4.356;2024-03-02T10:44:31;13.20;99.90
22035;DHT22;11181;51.002;4.356;2024-03-02T10:47:00;13.10;99.90
22035;DHT22;11181;51.002;4.356;2024-03-02T10:49:29;12.90;99.90
22035;DHT22;11181;51.002;4.356;2024-03-02T10:52:00;12.80;99.90
22035;DHT22;11181;51.002;4.356;2024-03-02T10:54:40;12.90;99.90
22035;DHT22;11181;51.002;4.356;2024-03-02T10:57:16;12.90;99.90
22035;DHT22;11181;51.002;4.356;2024-03-02T10:59:56;12.90;99.90
22035;DHT22;11181;51.002;4.356;2024-03-02T11:02:32;12.90;99.90
22035;DHT22;11181;51.002;4.356;2024-03-02T11:05:07;12.80;99.90
22035;DHT22;11181;51.002;4.356;2024-03-02T11:07:42;12.70;99.90
22035;DHT22;11181;51.002;4.356;2024-03-02T11:10:19;12.70;99.90
22035;DHT22;11181;51.002;4.356;2024-03-02T11:12:56;12.90;99.90
22035;DHT22;11181;51.002;4.356;2024-03-02T11:15:31;12.80;99.90
22035;DHT22;11181;51.002;4.356;2024-03-02T11:18:07;12.70;99.90
22035;DHT22;11181;51.002;4.356;2024-03-02T11:20:39;12.80;99.90
22035;DHT22;11181;51.002;4.356;2024-03-02T11:23:10;12.90;99.90
22035;DHT22;11181;51.002;4.356;2024-03-02T11:25:42;13.00;99.90
22035;DHT22;11181;51.002;4.356;2024-03-02T11:28:11;13.10;99.90
22035;DHT22;11181;51.002;4.356;2024-03-02T11:30:49;13.10;99.90
22035;DHT22;11181;51.002;4.356;2024-03-02T11:33:23;13.00;99.90
22035;DHT22;11181;51.002;4.356;2024-03-02T11:35:53;13.00;99.90
22035;DHT22;11181;51.002;4.356;2024-03-02T11:38:21;12.90;99.90
22035;DHT22;11181;51.002;4.356;2024-03-02T11:40:52;12.90;99.90
22035;DHT22;11181;51.002;4.356;2024-03-02T11:43:20;13.00;99.90
22035;DHT22;11181;51.002;4.356;2024-03-02T11:45:47;13.00;99.90
22035;DHT22;11181;51.002;4.356;2024-03-02T11:48:16;13.20;99.90
22035;DHT22;11181;51.002;4.356;2024-03-02T11:50:47;13.20;99.90
22035;DHT22;11181;51.002;4.356;2024-03-02T11:53:19;13.10;99.90
22035;DHT22;11181;51.002;4.356;2024-03-02T11:55:47;13.10;99.90
22035;DHT22;11181;51.002;4.356;2024-03-02T11:58:21;13.00;99.90
22035;DHT22;11181;51.002;4.356;2024-03-02T12:00:52;13.20;99.90
22035;DHT22;11181;51.002;4.356;2024-03-02T12:03:21;13.40;99.90
22035;DHT22;11181;51.002;4.356;2024-03-02T12:05:52;13.70;99.90
22035;DHT22;11181;51.002;4.356;2024-03-02T12:08:22;13.90;99.90
22035;DHT22;11181;51.002;4.356;2024-03-02T12:10:57;14.00;99.90
22035;DHT22;11181;51.002;4.356;2024-03-02T12:13:26;14.20;99.90
22035;DHT22;11181;51.002;4.356;2024-03-02T12:15:54;14.60;99.90
22035;DHT22;11181;51.002;4.356;2024-03-02T12:18:23;14.70;99.90
22035;DHT22;11181;51.002;4.356;2024-03-02T12:20:51;14.80;99.90
22035;DHT22;11181;51.002;4.356;2024-03-02T12:23:23;14.80;99.90
22035;DHT22;11181;51.002;4.356;2024-03-02T12:25:51;14.80;99.90
22035;DHT22;11181;51.002;4.356;2024-03-02T12:28:19;14.60;99.90
22035;DHT22;11181;51.002;4.356;2024-03-02T12:30:48;14.30;99.90
22035;DHT22;11181;51.002;4.356;2024-03-02T12:33:17;14.10;99.90
22035;DHT22;11181;51.002;4.356;2024-03-02T12:35:45;14.10;99.90
22035;DHT22;11181;51.002;4.356;2024-03-02T12:38:23;14.40;99.90
22035;DHT22;11181;51.002;4.356;2024-03-02T12:40:59;14.60;99.90
22035;DHT22;11181;51.002;4.356;2024-03-02T12:43:30;14.60;99.90
22035;DHT22;11181;51.002;4.356;2024-03-02T12:46:00;14.80;99.90
22035;DHT22;11181;51.002;4.356;2024-03-02T12:48:27;15.00;99.90
22035;DHT22;11181;51.002;4.356;2024-03-02T12:50:54;15.30;99.90
22035;DHT22;11181;51.002;4.356;2024-03-02T12:53:22;15.70;99.90
22035;DHT22;11181;51.002;4.356;2024-03-02T12:55:49;15.80;99.90
22035;DHT22;11181;51.002;4.356;2024-03-02T12:58:17;15.80;99.90
22035;DHT22;11181;51.002;4.356;2024-03-02T13:00:44;15.70;99.90
22035;DHT22;11181;51.002;4.356;2024-03-02T13:03:13;15.50;99.90
22035;DHT22;11181;51.002;4.356;2024-03-02T13:05:41;15.20;99.90
22035;DHT22;11181;51.002;4.356;2024-03-02T13:08:08;14.90;99.90
22035;DHT22;11181;51.002;4.356;2024-03-02T13:10:37;14.80;99.90
22035;DHT22;11181;51.002;4.356;2024-03-02T13:13:06;14.90;99.90
22035;DHT22;11181;51.002;4.356;2024-03-02T13:15:33;14.60;99.90
22035;DHT22;11181;51.002;4.356;2024-03-02T13:18:00;14.50;99.90
22035;DHT22;11181;51.002;4.356;2024-03-02T13:20:31;14.40;99.90
22035;DHT22;11181;51.002;4.356;2024-03-02T13:22:58;14.20;99.90
22035;DHT22;11181;51.002;4.356;2024-03-02T13:25:25;14.00;99.90
22035;DHT22;11181;51.002;4.356;2024-03-02T13:27:52;13.90;99.90
22035;DHT22;11181;51.002;4.356;2024-03-02T13:30:19;13.90;99.90
22035;DHT22;11181;51.002;4.356;2024-03-02T13:32:46;13.90;99.90
22035;DHT22;11181;51.002;4.356;2024-03-02T13:35:13;13.80;99.90
22035;DHT22;11181;51.002;4.356;2024-03-02T13:37:43;13.80;99.90
22035;DHT22;11181;51.002;4.356;2024-03-02T13:40:11;13.80;99.90
22035;DHT22;11181;51.002;4.356;2024-03-02T13:42:43;14.00;99.90
22035;DHT22;11181;51.002;4.356;2024-03-02T13:45:10;14.10;99.90
22035;DHT22;11181;51.002;4.356;2024-03-02T13:47:37;14.10;99.90
22035;DHT22;11181;51.002;4.356;2024-03-02T13:50:04;14.10;99.90
22035;DHT22;11181;51.002;4.356;2024-03-02T13:52:33;14.20;99.90
22035;DHT22;11181;51.002;4.356;2024-03-02T13:55:01;14.20;99.90
22035;DHT22;11181;51.002;4.356;2024-03-02T13:57:28;14.10;99.90
22035;DHT22;11181;51.002;4.356;2024-03-02T13:59:56;14.00;99.90
22035;DHT22;11181;51.002;4.356;2024-03-02T14:02:24;14.20;99.90
22035;DHT22;11181;51.002;4.356;2024-03-02T14:04:53;14.20;99.90
22035;DHT22;11181;51.002;4.356;2024-03-02T14:07:22;14.20;99.90
22035;DHT22;11181;51.002;4.356;2024-03-02T14:09:50;14.00;99.90
22035;DHT22;11181;51.002;4.356;2024-03-02T14:12:18;14.00;99.90
22035;DHT22;11181;51.002;4.356;2024-03-02T14:14:45;14.00;99.90
22035;DHT22;11181;51.002;4.356;2024-03-02T14:17:12;14.00;99.90
22035;DHT22;11181;51.002;4.356;2024-03-02T14:19:41;14.00;99.90
22035;DHT22;11181;51.002;4.356;2024-03-02T14:22:08;13.90;99.90
22035;DHT22;11181;51.002;4.356;2024-03-02T14:24:38;13.80;99.90
22035;DHT22;11181;51.002;4.356;2024-03-02T14:27:05;13.90;99.90
22035;DHT22;11181;51.002;4.356;2024-03-02T14:29:34;14.00;99.90
22035;DHT22;11181;51.002;4.356;2024-03-02T14:32:03;13.90;99.90
22035;DHT22;11181;51.002;4.356;2024-03-02T14:34:30;13.90;99.90
22035;DHT22;11181;51.002;4.356;2024-03-02T14:36:57;13.90;99.90
22035;DHT22;11181;51.002;4.356;2024-03-02T14:39:26;14.10;99.90
22035;DHT22;11181;51.002;4.356;2024-03-02T14:41:55;14.00;99.90
22035;DHT22;11181;51.002;4.356;2024-03-02T14:44:22;13.90;99.90
22035;DHT22;11181;51.002;4.356;2024-03-02T14:46:50;13.90;99.90
22035;DHT22;11181;51.002;4.356;2024-03-02T14:49:17;13.90;99.90
22035;DHT22;11181;51.002;4.356;2024-03-02T14:51:44;13.80;99.90
22035;DHT22;11181;51.002;4.356;2024-03-02T14:54:11;13.80;99.90
22035;DHT22;11181;51.002;4.356;2024-03-02T14:56:38;13.60;99.90
22035;DHT22;11181;51.002;4.356;2024-03-02T14:59:05;13.50;99.90
22035;DHT22;11181;51.002;4.356;2024-03-02T15:01:32;13.40;99.90
22035;DHT22;11181;51.002;4.356;2024-03-02T15:04:00;13.50;99.90
22035;DHT22;11181;51.002;4.356;2024-03-02T15:06:28;13.50;99.90
22035;DHT22;11181;51.002;4.356;2024-03-02T15:08:56;13.50;99.90
22035;DHT22;11181;51.002;4.356;2024-03-02T15:11:23;13.40;99.90
22035;DHT22;11181;51.002;4.356;2024-03-02T15:13:50;13.40;99.90
22035;DHT22;11181;51.002;4.356;2024-03-02T15:16:17;13.50;99.90
22035;DHT22;11181;51.002;4.356;2024-03-02T15:18:44;13.40;99.90
22035;DHT22;11181;51.002;4.356;2024-03-02T15:21:13;13.30;99.90
22035;DHT22;11181;51.002;4.356;2024-03-02T15:23:40;13.20;99.90
22035;DHT22;11181;51.002;4.356;2024-03-02T15:26:09;13.20;99.90
22035;DHT22;11181;51.002;4.356;2024-03-02T15:28:41;13.30;99.90
22035;DHT22;11181;51.002;4.356;2024-03-02T15:31:11;13.30;99.90
22035;DHT22;11181;51.002;4.356;2024-03-02T15:33:55;13.30;99.90
22035;DHT22;11181;51.002;4.356;2024-03-02T15:36:32;13.30;99.90
22035;DHT22;11181;51.002;4.356;2024-03-02T15:39:12;13.40;99.90
22035;DHT22;11181;51.002;4.356;2024-03-02T15:41:49;13.40;99.90
22035;DHT22;11181;51.002;4.356;2024-03-02T15:44:49;13.50;99.90